createdAt,value
2018-06-12T00:00:03.691Z,23.40
2018-06-12T00:02:32.130Z,23.40
2018-06-12T00:05:00.766Z,23.40
2018-06-12T00:07:29.259Z,23.30
2018-06-12T00:09:57.594Z,23.30
2018-06-12T00:12:32.550Z,23.30
2018-06-12T00:15:00.987Z,23.30
2018-06-12T00:19:57.844Z,23.30
2018-06-12T00:22:26.347Z,23.30
2018-06-12T00:24:54.725Z,23.30
2018-06-12T00:27:23.180Z,23.30
2018-06-12T00:29:51.592Z,23.20
2018-06-12T00:32:26.626Z,23.20
2018-06-12T00:34:55.056Z,23.20
2018-06-12T00:37:23.547Z,23.20
2018-06-12T00:39:51.922Z,23.20
2018-06-12T00:42:20.290Z,23.10
2018-06-12T00:44:48.686Z,23.10
2018-06-12T00:49:52.514Z,23.20
2018-06-12T00:52:21.218Z,23.10
2018-06-12T00:54:49.514Z,23.10
2018-06-12T00:57:17.847Z,23.10
2018-06-12T00:59:46.143Z,23.10
2018-06-12T01:02:14.544Z,23.10
2018-06-12T01:04:42.904Z,23.10
2018-06-12T01:07:11.237Z,23.10
2018-06-12T01:09:45.712Z,23.10
2018-06-12T01:12:14.090Z,23.10
2018-06-12T01:14:42.651Z,23.10
2018-06-12T01:17:10.967Z,23.10
2018-06-12T01:19:39.371Z,23.10
2018-06-12T01:22:07.870Z,23.10
2018-06-12T01:24:36.245Z,23.10
2018-06-12T01:27:06.142Z,23.10
2018-06-12T01:29:34.511Z,23.10
2018-06-12T01:32:02.854Z,23.10
2018-06-12T01:34:31.162Z,23.10
2018-06-12T01:36:59.615Z,23.10
2018-06-12T01:39:28.096Z,23.00
2018-06-12T01:41:56.420Z,23.10
2018-06-12T01:44:24.761Z,23.10
2018-06-12T01:46:53.083Z,23.10
2018-06-12T01:49:21.525Z,23.00
2018-06-12T01:51:49.924Z,23.00
2018-06-12T01:54:18.313Z,23.00
2018-06-12T01:56:46.633Z,23.00
2018-06-12T01:59:14.940Z,23.00
2018-06-12T02:01:43.268Z,22.90
2018-06-12T02:04:11.606Z,23.00
2018-06-12T02:06:39.919Z,22.90
2018-06-12T02:09:08.276Z,22.90
2018-06-12T02:11:43.185Z,22.90
2018-06-12T02:14:11.616Z,22.90
2018-06-12T02:16:39.903Z,22.90
2018-06-12T02:19:08.216Z,22.90
2018-06-12T02:21:36.779Z,22.90
2018-06-12T02:24:05.951Z,22.90
2018-06-12T02:26:34.320Z,22.90
2018-06-12T02:29:02.693Z,22.80
2018-06-12T02:31:31.133Z,22.90
2018-06-12T02:33:59.489Z,22.90
2018-06-12T02:36:27.952Z,22.80
2018-06-12T02:38:56.301Z,22.80
2018-06-12T02:41:24.660Z,22.80
2018-06-12T02:43:53.069Z,22.80
2018-06-12T02:46:21.484Z,22.80
2018-06-12T02:48:49.840Z,22.80
2018-06-12T02:51:18.427Z,22.80
2018-06-12T02:53:46.764Z,22.80
2018-06-12T02:56:15.096Z,22.80
2018-06-12T02:58:43.457Z,22.80
2018-06-12T03:01:11.839Z,22.80
2018-06-12T03:03:40.351Z,22.80
2018-06-12T03:06:08.793Z,22.80
2018-06-12T03:08:37.230Z,22.80
2018-06-12T03:13:34.127Z,22.80
2018-06-12T03:16:02.571Z,22.80
2018-06-12T03:18:31.029Z,22.80
2018-06-12T03:20:59.393Z,22.80
2018-06-12T03:23:27.708Z,22.80
2018-06-12T03:25:59.055Z,22.80
2018-06-12T03:30:55.420Z,22.80
2018-06-12T03:33:23.799Z,22.70
2018-06-12T03:35:52.138Z,22.70
2018-06-12T03:38:20.476Z,22.70
2018-06-12T03:40:48.858Z,22.70
2018-06-12T03:43:17.258Z,22.70
2018-06-12T03:45:45.684Z,22.60
2018-06-12T03:48:14.143Z,22.70
2018-06-12T03:50:42.547Z,22.70
2018-06-12T03:53:10.860Z,22.60
2018-06-12T03:55:39.260Z,22.60
2018-06-12T03:58:08.402Z,22.60
2018-06-12T04:00:36.819Z,22.60
2018-06-12T04:03:05.227Z,22.60
2018-06-12T04:05:33.589Z,22.60
2018-06-12T04:08:01.956Z,22.60
2018-06-12T04:10:30.405Z,22.60
2018-06-12T04:12:58.777Z,22.60
2018-06-12T04:15:27.294Z,22.60
2018-06-12T04:17:55.675Z,22.60
2018-06-12T04:20:24.054Z,22.70
2018-06-12T04:22:52.335Z,22.70
2018-06-12T04:25:20.817Z,22.70
2018-06-12T04:27:49.135Z,22.70
2018-06-12T04:30:17.457Z,22.70
2018-06-12T04:32:45.885Z,22.70
2018-06-12T04:35:14.497Z,22.70
2018-06-12T04:37:43.045Z,22.70
2018-06-12T04:40:11.702Z,22.70
2018-06-12T04:42:40.294Z,22.80
2018-06-12T04:45:09.015Z,22.80
2018-06-12T04:47:37.436Z,22.80
2018-06-12T04:52:34.154Z,22.80
2018-06-12T04:55:02.687Z,22.90
2018-06-12T04:57:31.070Z,22.80
2018-06-12T04:59:59.517Z,22.90
2018-06-12T05:02:27.891Z,22.90
2018-06-12T05:04:56.375Z,22.90
2018-06-12T05:07:24.766Z,23.00
2018-06-12T05:09:53.185Z,23.00
2018-06-12T05:12:21.493Z,23.00
2018-06-12T05:14:49.940Z,23.00
2018-06-12T05:17:18.665Z,23.10
2018-06-12T05:19:47.075Z,23.10
2018-06-12T05:22:15.464Z,23.10
2018-06-12T05:24:44.093Z,23.10
2018-06-12T05:27:12.713Z,23.10
2018-06-12T05:29:41.368Z,23.10
2018-06-12T05:32:10.180Z,23.10
2018-06-12T05:34:38.703Z,23.00
2018-06-12T05:37:07.227Z,23.10
2018-06-12T05:39:35.743Z,23.00
2018-06-12T05:42:04.112Z,23.00
2018-06-12T05:44:32.437Z,23.00
2018-06-12T05:47:00.794Z,22.90
2018-06-12T05:49:29.142Z,22.90
2018-06-12T05:51:57.520Z,22.90
2018-06-12T05:54:26.008Z,22.80
2018-06-12T05:56:54.412Z,22.80
2018-06-12T05:59:22.760Z,22.80
2018-06-12T06:01:51.113Z,22.70
2018-06-12T06:04:19.510Z,22.70
2018-06-12T06:06:47.932Z,22.70
2018-06-12T06:11:44.377Z,22.60
2018-06-12T06:14:12.826Z,22.60
2018-06-12T06:16:41.295Z,22.50
2018-06-12T06:19:09.748Z,22.50
2018-06-12T06:21:38.103Z,22.50
2018-06-12T06:24:06.471Z,22.50
2018-06-12T06:26:35.784Z,22.50
2018-06-12T06:29:04.105Z,22.50
2018-06-12T06:31:32.452Z,22.50
2018-06-12T06:34:00.823Z,22.50
2018-06-12T06:36:29.147Z,22.50
2018-06-12T06:38:57.437Z,22.40
2018-06-12T06:41:25.778Z,22.40
2018-06-12T06:43:54.189Z,22.40
2018-06-12T06:46:22.523Z,22.40
2018-06-12T06:48:50.904Z,22.40
2018-06-12T06:51:19.319Z,22.40
2018-06-12T06:53:47.670Z,22.30
2018-06-12T06:56:16.045Z,22.30
2018-06-12T06:58:44.463Z,22.30
2018-06-12T07:01:12.920Z,22.30
2018-06-12T07:03:41.252Z,22.30
2018-06-12T07:06:09.687Z,22.30
2018-06-12T07:08:38.116Z,22.30
2018-06-12T07:11:06.497Z,22.30
2018-06-12T07:13:34.830Z,22.30
2018-06-12T07:16:03.153Z,22.30
2018-06-12T07:18:31.504Z,22.30
2018-06-12T07:21:07.742Z,22.30
2018-06-12T07:23:36.170Z,22.30
2018-06-12T07:26:04.524Z,22.40
2018-06-12T07:28:32.812Z,22.40
2018-06-12T07:31:01.170Z,22.40
2018-06-12T07:33:29.524Z,22.40
2018-06-12T07:35:57.910Z,22.50
2018-06-12T07:38:26.193Z,22.50
2018-06-12T07:40:54.545Z,22.50
2018-06-12T07:43:22.909Z,22.50
2018-06-12T07:45:51.279Z,22.50
2018-06-12T07:48:19.632Z,22.50
2018-06-12T07:50:47.958Z,22.50
2018-06-12T07:53:16.325Z,22.50
2018-06-12T07:55:44.630Z,22.50
2018-06-12T07:58:13.141Z,22.50
2018-06-12T08:00:41.484Z,22.50
2018-06-12T08:03:09.837Z,22.50
2018-06-12T08:05:38.244Z,22.50
2018-06-12T08:08:06.730Z,22.60
2018-06-12T08:10:35.255Z,22.50
2018-06-12T08:13:03.658Z,22.60
2018-06-12T08:15:31.998Z,22.50
2018-06-12T08:18:00.334Z,22.50
2018-06-12T08:20:28.681Z,22.50
2018-06-12T08:22:57.056Z,22.50
2018-06-12T08:25:31.787Z,22.50
2018-06-12T08:28:00.164Z,22.50
2018-06-12T08:30:28.625Z,22.50
2018-06-12T08:32:57.028Z,22.50
2018-06-12T08:35:25.463Z,22.50
2018-06-12T08:37:53.857Z,22.40
2018-06-12T08:40:22.196Z,22.50
2018-06-12T08:42:50.683Z,22.40
2018-06-12T08:45:19.011Z,22.50
2018-06-12T08:47:47.568Z,22.50
2018-06-12T08:50:16.007Z,22.50
2018-06-12T08:52:44.304Z,22.50
2018-06-12T08:55:12.667Z,22.50
2018-06-12T08:57:41.019Z,22.60
2018-06-12T09:00:09.334Z,22.60
2018-06-12T09:02:37.889Z,22.60
2018-06-12T09:05:06.276Z,22.70
2018-06-12T09:07:34.759Z,22.80
2018-06-12T09:10:03.672Z,22.80
2018-06-12T09:12:32.181Z,22.90
2018-06-12T09:15:00.700Z,22.90
2018-06-12T09:17:29.116Z,23.00
2018-06-12T09:19:57.515Z,23.00
2018-06-12T09:22:26.077Z,23.10
2018-06-12T09:24:54.343Z,23.10
2018-06-12T09:27:22.650Z,23.20
2018-06-12T09:29:50.983Z,23.20
2018-06-12T09:32:19.360Z,23.20
2018-06-12T09:34:47.683Z,23.20
2018-06-12T09:37:16.195Z,23.20
2018-06-12T09:39:44.518Z,23.20
2018-06-12T09:42:12.873Z,23.20
2018-06-12T09:44:41.357Z,23.20
2018-06-12T09:47:09.820Z,23.20
2018-06-12T09:49:38.152Z,23.10
2018-06-12T09:52:06.620Z,23.10
2018-06-12T09:54:35.031Z,23.00
2018-06-12T09:57:03.561Z,23.00
2018-06-12T09:59:32.034Z,22.90
2018-06-12T10:02:00.380Z,22.90
2018-06-12T10:04:28.681Z,22.90
2018-06-12T10:06:57.693Z,22.80
2018-06-12T10:09:26.062Z,22.80
2018-06-12T10:11:54.524Z,22.80
2018-06-12T10:14:22.882Z,22.80
2018-06-12T10:16:51.251Z,22.70
2018-06-12T10:19:19.610Z,22.70
2018-06-12T10:21:47.916Z,22.70
2018-06-12T10:24:16.522Z,22.70
2018-06-12T10:26:44.948Z,22.70
2018-06-12T10:29:13.246Z,22.70
2018-06-12T10:31:41.606Z,22.70
2018-06-12T10:34:10.053Z,22.70
2018-06-12T10:36:41.273Z,22.70
2018-06-12T10:39:10.240Z,22.70
2018-06-12T10:41:38.847Z,22.70
2018-06-12T10:44:07.425Z,22.60
2018-06-12T10:46:35.768Z,22.60
2018-06-12T10:49:04.100Z,22.60
2018-06-12T10:51:32.477Z,22.60
2018-06-12T10:54:00.883Z,22.60
2018-06-12T10:56:29.256Z,22.60
2018-06-12T10:58:57.516Z,22.60
2018-06-12T11:01:25.838Z,22.60
2018-06-12T11:03:54.235Z,22.60
2018-06-12T11:06:22.577Z,22.60
2018-06-12T11:08:50.873Z,22.60
2018-06-12T11:13:47.284Z,22.80
2018-06-12T11:16:15.646Z,22.80
2018-06-12T11:18:44.253Z,22.90
2018-06-12T11:21:12.677Z,23.00
2018-06-12T11:23:41.038Z,23.10
2018-06-12T11:26:09.365Z,23.10
2018-06-12T11:28:37.894Z,23.20
2018-06-12T11:31:06.539Z,23.20
2018-06-12T11:33:34.911Z,23.30
2018-06-12T11:36:03.210Z,23.40
2018-06-12T11:38:31.648Z,23.40
2018-06-12T11:40:59.970Z,23.50
2018-06-12T11:43:28.455Z,23.50
2018-06-12T11:45:57.055Z,23.50
2018-06-12T11:48:25.420Z,23.60
2018-06-12T11:50:54.375Z,23.60
2018-06-12T11:53:23.165Z,23.70
2018-06-12T11:55:52.692Z,23.80
2018-06-12T11:58:21.027Z,23.90
2018-06-12T12:00:49.415Z,24.10
2018-06-12T12:03:18.198Z,24.20
2018-06-12T12:05:46.603Z,24.30
2018-06-12T12:08:15.113Z,24.40
2018-06-12T12:10:43.509Z,24.40
2018-06-12T12:13:11.875Z,24.50
2018-06-12T12:15:40.217Z,24.60
2018-06-12T12:18:08.626Z,24.70
2018-06-12T12:20:37.092Z,24.70
2018-06-12T12:23:05.723Z,24.80
2018-06-12T12:25:34.112Z,24.90
2018-06-12T12:30:30.760Z,25.00
2018-06-12T12:32:59.089Z,25.00
2018-06-12T12:35:27.475Z,25.10
2018-06-12T12:37:55.893Z,25.20
2018-06-12T12:40:24.291Z,25.30
2018-06-12T12:42:52.599Z,25.30
2018-06-12T12:45:21.112Z,25.40
2018-06-12T12:47:49.459Z,25.40
2018-06-12T12:50:17.796Z,25.40
2018-06-12T12:52:46.122Z,25.40
2018-06-12T12:55:14.664Z,25.40
2018-06-12T12:57:43.280Z,25.40
2018-06-12T13:00:11.619Z,25.40
2018-06-12T13:02:40.030Z,25.40
2018-06-12T13:05:08.344Z,25.40
2018-06-12T13:07:36.721Z,25.40
2018-06-12T13:10:05.145Z,25.40
2018-06-12T13:12:33.523Z,25.30
2018-06-12T13:15:01.817Z,25.30
2018-06-12T13:17:30.224Z,25.30
2018-06-12T13:19:58.618Z,25.20
2018-06-12T13:22:28.772Z,25.20
2018-06-12T13:24:57.214Z,25.20
2018-06-12T13:27:25.829Z,25.10
2018-06-12T13:29:54.182Z,25.10
2018-06-12T13:32:22.577Z,25.10
2018-06-12T13:34:50.923Z,25.10
2018-06-12T13:37:19.445Z,25.20
2018-06-12T13:39:47.822Z,25.10
2018-06-12T13:42:16.168Z,25.10
2018-06-12T13:44:44.527Z,25.10
2018-06-12T13:47:12.848Z,25.10
2018-06-12T13:49:41.241Z,25.10
2018-06-12T13:52:09.558Z,25.10
2018-06-12T13:54:38.004Z,25.00
2018-06-12T13:57:06.406Z,25.00
2018-06-12T13:59:34.858Z,24.90
2018-06-12T14:02:03.236Z,24.90
2018-06-12T14:04:31.788Z,24.90
2018-06-12T14:07:00.128Z,24.90
2018-06-12T14:09:28.665Z,24.90
2018-06-12T14:11:57.073Z,25.00
2018-06-12T14:14:25.537Z,25.00
2018-06-12T14:16:54.167Z,25.00
2018-06-12T14:19:22.803Z,25.00
2018-06-12T14:21:51.228Z,25.10
2018-06-12T14:24:19.763Z,25.10
2018-06-12T14:26:48.152Z,25.10
2018-06-12T14:29:16.680Z,25.20
2018-06-12T14:31:44.968Z,25.10
2018-06-12T14:34:13.316Z,25.10
2018-06-12T14:36:41.655Z,25.00
2018-06-12T14:39:10.072Z,25.00
2018-06-12T14:41:39.480Z,24.90
2018-06-12T14:44:08.054Z,24.90
2018-06-12T14:46:36.485Z,24.90
2018-06-12T14:49:04.937Z,24.80
2018-06-12T14:51:33.344Z,24.70
2018-06-12T14:54:01.834Z,24.70
2018-06-12T14:56:30.315Z,24.60
2018-06-12T14:58:58.651Z,24.50
2018-06-12T15:01:27.045Z,24.40
2018-06-12T15:03:55.683Z,24.40
2018-06-12T15:06:24.476Z,24.40
2018-06-12T15:08:52.826Z,24.30
2018-06-12T15:13:49.448Z,24.20
2018-06-12T15:16:17.829Z,24.20
2018-06-12T15:18:46.134Z,24.20
2018-06-12T15:21:14.515Z,24.10
2018-06-12T15:23:43.495Z,24.10
2018-06-12T15:26:11.902Z,24.10
2018-06-12T15:28:40.639Z,24.10
2018-06-12T15:31:09.194Z,24.00
2018-06-12T15:33:37.629Z,24.00
2018-06-12T15:36:06.102Z,24.00
2018-06-12T15:38:34.642Z,24.00
2018-06-12T15:41:03.063Z,24.00
2018-06-12T15:43:31.754Z,23.90
2018-06-12T15:46:00.258Z,24.00
2018-06-12T15:48:28.640Z,24.00
2018-06-12T15:50:56.992Z,23.90
2018-06-12T15:53:25.588Z,23.90
2018-06-12T15:55:53.978Z,23.90
2018-06-12T15:58:22.351Z,24.00
2018-06-12T16:00:50.787Z,24.00
2018-06-12T16:03:19.151Z,23.90
2018-06-12T16:05:47.541Z,24.00
2018-06-12T16:08:15.892Z,24.00
2018-06-12T16:10:44.313Z,24.00
2018-06-12T16:13:12.679Z,24.00
2018-06-12T16:15:41.133Z,24.00
2018-06-12T16:18:09.810Z,24.00
2018-06-12T16:20:38.553Z,24.00
2018-06-12T16:23:07.050Z,24.00
2018-06-12T16:25:35.614Z,24.00
2018-06-12T16:28:04.428Z,24.00
2018-06-12T16:30:32.809Z,24.00
2018-06-12T16:33:01.279Z,23.90
2018-06-12T16:35:30.030Z,23.90
2018-06-12T16:37:58.481Z,23.90
2018-06-12T16:40:27.042Z,23.90
2018-06-12T16:42:55.610Z,23.90
2018-06-12T16:45:24.086Z,23.90
2018-06-12T16:47:52.455Z,23.80
2018-06-12T16:50:20.818Z,23.90
2018-06-12T16:52:49.116Z,23.80
2018-06-12T16:55:17.477Z,23.80
2018-06-12T16:57:45.880Z,23.80
2018-06-12T17:00:14.247Z,23.80
2018-06-12T17:02:42.940Z,23.90
2018-06-12T17:05:11.586Z,23.90
2018-06-12T17:07:40.200Z,23.80
2018-06-12T17:10:10.793Z,23.90
2018-06-12T17:12:39.538Z,23.90
2018-06-12T17:15:08.088Z,23.90
2018-06-12T17:17:36.875Z,23.90
2018-06-12T17:20:05.333Z,23.90
2018-06-12T17:22:33.953Z,23.90
2018-06-12T17:25:02.697Z,23.80
2018-06-12T17:27:31.326Z,23.80
2018-06-12T17:30:00.095Z,23.80
2018-06-12T17:32:28.452Z,23.70
2018-06-12T17:34:56.884Z,23.70
2018-06-12T17:37:25.291Z,23.70
2018-06-12T17:39:53.713Z,23.70
2018-06-12T17:42:22.192Z,23.70
2018-06-12T17:44:50.536Z,23.60
2018-06-12T17:47:18.953Z,23.60
2018-06-12T17:49:47.523Z,23.60
2018-06-12T17:52:15.903Z,23.60
2018-06-12T17:54:44.387Z,23.60
2018-06-12T17:57:12.877Z,23.50
2018-06-12T17:59:41.340Z,23.50
2018-06-12T18:02:09.914Z,23.50
2018-06-12T18:04:38.581Z,23.40
2018-06-12T18:07:07.224Z,23.40
2018-06-12T18:09:36.048Z,23.40
2018-06-12T18:12:04.640Z,23.40
2018-06-12T18:14:33.419Z,23.40
2018-06-12T18:17:01.848Z,23.40
2018-06-12T18:19:30.313Z,23.30
2018-06-12T18:21:58.721Z,23.30
2018-06-12T18:24:27.342Z,23.30
2018-06-12T18:26:55.685Z,23.30
2018-06-12T18:29:24.208Z,23.30
2018-06-12T18:31:52.647Z,23.30
2018-06-12T18:34:22.160Z,23.20
2018-06-12T18:36:50.969Z,23.20
2018-06-12T18:39:19.299Z,23.20
2018-06-12T18:41:47.687Z,23.20
2018-06-12T18:46:44.354Z,23.20
2018-06-12T18:49:12.883Z,23.10
2018-06-12T18:51:41.367Z,23.10
2018-06-12T18:54:09.853Z,23.10
2018-06-12T18:56:38.295Z,23.10
2018-06-12T18:59:06.667Z,23.10
2018-06-12T19:01:35.165Z,23.10
2018-06-12T19:04:03.625Z,23.00
2018-06-12T19:06:32.081Z,23.00
2018-06-12T19:09:00.823Z,23.00
2018-06-12T19:11:29.495Z,23.00
2018-06-12T19:13:58.015Z,23.00
2018-06-12T19:16:26.381Z,23.00
2018-06-12T19:18:54.729Z,23.00
2018-06-12T19:21:23.229Z,23.00
2018-06-12T19:23:51.579Z,23.00
2018-06-12T19:26:20.461Z,23.00
2018-06-12T19:28:49.003Z,23.00
2018-06-12T19:31:17.417Z,23.00
2018-06-12T19:33:45.825Z,23.00
2018-06-12T19:36:14.272Z,23.00
2018-06-12T19:38:43.130Z,23.00
2018-06-12T19:41:11.622Z,23.00
2018-06-12T19:43:40.237Z,23.00
2018-06-12T19:46:08.732Z,23.00
2018-06-12T19:48:37.295Z,23.00
2018-06-12T19:51:06.097Z,23.00
2018-06-12T19:53:34.679Z,23.00
2018-06-12T19:56:03.307Z,22.90
2018-06-12T19:58:32.168Z,23.00
2018-06-12T20:01:00.841Z,23.00
2018-06-12T20:03:29.373Z,22.90
2018-06-12T20:05:57.835Z,22.90
2018-06-12T20:08:26.199Z,22.90
2018-06-12T20:10:54.557Z,22.90
2018-06-12T20:13:22.991Z,22.90
2018-06-12T20:15:51.485Z,22.90
2018-06-12T20:18:20.311Z,22.90
2018-06-12T20:20:48.683Z,22.90
2018-06-12T20:23:17.132Z,22.90
2018-06-12T20:25:45.824Z,22.90
2018-06-12T20:28:14.228Z,22.90
2018-06-12T20:30:42.912Z,22.80
2018-06-12T20:33:11.350Z,22.80
2018-06-12T20:35:39.906Z,22.80
2018-06-12T20:38:08.594Z,22.80
2018-06-12T20:40:37.360Z,22.80
2018-06-12T20:43:06.188Z,22.80
2018-06-12T20:45:34.674Z,22.70
2018-06-12T20:48:03.145Z,22.70
2018-06-12T20:50:32.019Z,22.70
2018-06-12T20:53:00.485Z,22.70
2018-06-12T20:55:29.008Z,22.60
2018-06-12T20:57:58.098Z,22.60
2018-06-12T21:00:26.450Z,22.60
2018-06-12T21:02:54.875Z,22.60
2018-06-12T21:05:23.405Z,22.60
2018-06-12T21:07:51.868Z,22.50
2018-06-12T21:10:20.270Z,22.50
2018-06-12T21:12:48.616Z,22.50
2018-06-12T21:15:16.981Z,22.50
2018-06-12T21:17:45.348Z,22.50
2018-06-12T21:20:13.915Z,22.50
2018-06-12T21:22:42.328Z,22.50
2018-06-12T21:25:10.849Z,22.60
2018-06-12T21:27:39.176Z,22.60
2018-06-12T21:30:07.643Z,22.60
2018-06-12T21:32:36.595Z,22.60
2018-06-12T21:35:05.144Z,22.60
2018-06-12T21:37:33.743Z,22.60
2018-06-12T21:40:02.213Z,22.60
2018-06-12T21:42:30.779Z,22.60
2018-06-12T21:44:59.335Z,22.60
2018-06-12T21:47:27.741Z,22.60
2018-06-12T21:49:56.143Z,22.60
2018-06-12T21:52:24.526Z,22.60
2018-06-12T21:54:53.069Z,22.60
2018-06-12T21:57:21.743Z,22.60
2018-06-12T21:59:51.516Z,22.60
2018-06-12T22:02:19.898Z,22.60
2018-06-12T22:04:48.253Z,22.60
2018-06-12T22:07:16.673Z,22.50
2018-06-12T22:09:46.558Z,22.50
2018-06-12T22:12:14.977Z,22.50
2018-06-12T22:14:43.438Z,22.50
2018-06-12T22:17:13.002Z,22.50
2018-06-12T22:19:41.436Z,22.50
2018-06-12T22:22:09.953Z,22.40
2018-06-12T22:24:38.453Z,22.50
2018-06-12T22:27:06.892Z,22.40
2018-06-12T22:29:36.153Z,22.40
2018-06-12T22:32:04.658Z,22.40
2018-06-12T22:34:33.588Z,22.40
2018-06-12T22:37:01.971Z,22.40
2018-06-12T22:39:45.113Z,22.30
2018-06-12T22:42:13.641Z,22.30
2018-06-12T22:47:30.690Z,22.30
2018-06-12T22:49:59.181Z,22.30
2018-06-12T22:52:27.602Z,22.30
2018-06-12T22:54:55.915Z,22.30
2018-06-12T22:57:24.248Z,22.30
2018-06-12T22:59:52.603Z,22.30
2018-06-12T23:02:20.929Z,22.30
2018-06-12T23:04:49.426Z,22.30
2018-06-12T23:07:17.781Z,22.30
2018-06-12T23:09:46.070Z,22.30
2018-06-12T23:12:14.681Z,22.30
2018-06-12T23:14:43.084Z,22.30
2018-06-12T23:17:11.569Z,22.30
2018-06-12T23:19:51.064Z,22.30
2018-06-12T23:22:19.395Z,22.30
2018-06-12T23:24:47.831Z,22.30
2018-06-12T23:27:16.209Z,22.20
2018-06-12T23:29:44.515Z,22.20
2018-06-12T23:32:12.868Z,22.20
2018-06-12T23:34:41.429Z,22.10
2018-06-12T23:37:09.892Z,22.10
2018-06-12T23:39:38.289Z,22.10
2018-06-12T23:42:06.580Z,22.10
2018-06-12T23:44:35.036Z,22.10
2018-06-12T23:47:03.396Z,22.00
2018-06-12T23:49:32.113Z,22.00
2018-06-12T23:52:00.416Z,22.00
2018-06-12T23:54:28.758Z,22.00
2018-06-12T23:56:57.143Z,21.90
2018-06-12T23:59:25.787Z,21.90
